ED1ZAS
43.27.52N 005.40.17W
IN73DL aprs.fi
zuletzt gehoert:
2021-04-23T14:06:27Z
zuerst gehoert:
2020-02-10T15:05:12Z

APRS Siero [IN73DK], 0 Stunde(n), ED1ZAS [16:34:35, 0s].
ED1ZAS 43.27.52N 005.40.17WIN73DL 0.417km 345°NNW14:06:27ZRD985 438.2250/430.6250 CC1
ED1ZAE 43.27.99N 005.40.54WIN73DL 1.393km 334°NNW14:23:51Z2m Voice 145.5875 -0.600 Mhz(3ED1ZAE-C)
400 M. PICO SAN MARTIN (GIJON) 13.5V,23.1C(2ED1ZAE-3)
EB1GEM 43.30.00N 005.36.07WIN73EM 7.375km 47°NE14:21:39ZWX3in1Plus2.0 U=13.3V,T=??.?C/??.?F(3EB1GEM-3)
EA1DZR 43.31.47N 005.40.00WIN73DM 7.706km N14:05:53ZMMDVM DVMega 431.1000/431.1000 CC1
EA1FFA 43.31.53N 005.40.64WIN73DM 7.868km 355°N14:32:34ZMMDVM MMDVM HS Hat 438.8000/438.8000 CC1
EA1GHQ 43.30.67N 005.36.12WIN73EM 8.208km 41°NE14:30:13ZTransmission ended(3EA1GHQ-7)
EB1TK 43.32.22N 005.42.32WIN73DM 9.588km 342°NNW14:25:16ZWind 020°/003kn, Böen bis 008kn, Temp 17.78c, Regen 0.0mm, letzte 24h 0.0mm, seit 0h 0.0mm, Baro 1016.1h, Hum: 68%(3EB1TK-13)
LEEL 43.32.98N 005.41.71WIN73DN 10.725km 348°NNW14:30:03ZHelipuerto de El Musel: LEAS 231400Z VRB01KT 9999 FEW050 20/13 Q1013 NOSIG=
EA1FLQ 43.22.00N 005.36.35WIN73EI 11.057km 153°SSE14:33:36ZMMDVM DVMega 439.9750/439.9750 CC5
EA1ABW 43.24.77N 005.47.77WIN73CJ 11.347km 246°WSW14:31:38ZMMDVM MMDVM HS Hat 439.8250/439.8250 CC1
LEMR 43.25.83N 005.49.60WIN73CK 13.083km 258°WSW14:30:04ZAerodromo de la Morgal: LEAS 231400Z VRB01KT 9999 FEW050 20/13 Q1013 NOSIG=
LEGM 43.26.15N 005.49.84WIN73CK 13.273km 261°W14:30:03ZHelipuerto de La Morgal: LEAS 231400Z VRB01KT 9999 FEW050 20/13 Q1013 NOSIG=
LEHU 43.22.63N 005.49.57WIN73CJ 15.427km 236°SW14:30:03ZHelipuerto del HUCA: LEAS 231400Z VRB01KT 9999 FEW050 20/13 Q1013 NOSIG=
33D00 43.21.63N 005.51.13WIN73BI 18.200km 235°SW14:01:58Z33-D-00 Protección Civil REMER / Delegación del Gobierno en Asturias
EA1YR 43.22.09N 005.51.86WIN73BI 18.552km 239°WSW14:05:49ZMMDVM DVS 434.3500/434.3500 CC1
EA1FHR 43.28.72N 005.26.41WIN73GL 18.584km 82°E14:32:45ZMMDVM MMDVM HS Hat 439.1500/439.1500 CC1
ED1ZAU 43.23.04N 005.52.75WIN73BJ 18.785km 245°WSW14:06:34ZRD625 438.5000/430.9000 CC1
EA1HJA 43.21.47N 005.52.09WIN73BI 19.433km 236°SW14:20:29ZEA1HJA@URE.ES(3EA1HJA-2)
EA1HJA@URE.ES(2EA1HJA)
EA1L 43.20.37N 005.51.13WIN73BI 19.633km 229°SW14:30:05Zea1l@ure.es V=11.7V,T=??.?C
Wind 000°/000kn, Böen bis 000kn, Temp 0.00c, Regen 0.0mm, letzte 24h 0.0mm, seit 0h 0.0mm, Baro 0000.0h, Hum: 0%(2EA1L-13)
EA1JAY 43.21.22N 005.52.14WIN73BI 19.761km 235°SW13:59:33ZEA1JAY(3EA1JAY-2)
EA1JAY 438.8000/438.8000 CC1(2EA1JAY)
Mario, Oviedo. HamTETRA APRS(2EA1JAY-7)
EA1AHA 43.32.72N 005.54.38WIN73BN 21.658km 298°WNW14:30:57ZWind 225°/005kn, Böen bis 008kn, Temp 22.22c, Regen 0.0mm, letzte 24h 0.0mm, seit 0h 0.0mm, Baro 1013.4h, Hum: 46%(3EA1AHA-13)
ED1ZAY 43.29.47N 005.56.54WIN73AL 22.479km 280°W14:06:32ZRD625 438.3000/430.7000 CC1
EA1IZV 43.33.25N 005.55.92WIN73AN 23.950km 297°WNW14:15:03ZEn proceso...
EA1IMW 43.14.36N 005.46.93WIN73CF 25.703km 201°SSW14:05:33ZGRUPO RADIO GALENA (GRG) 433.4500/433.4500 CC1
EA1DHE 43.33.98N 005.58.57WIN73AN 27.732km 297°WNW14:05:49ZMMDVM DVS 434.3500/434.3500 CC1
EB1DGC 43.12.60N 005.45.59WIN73CF 28.250km 195°SSW14:31:44ZMMDVM MMDVM HS Hat 433.4500/433.4500 CC1
EA1JBL 43.12.28N 005.47.42WIN73CE 29.536km 200°SSW14:05:19ZMMDVM DVMega 435.3000/435.3000 CC1
EA1HWA 43.12.00N 005.47.40WIN73CE 30.029km 199°SSW14:33:26ZMMDVM MMDVM HS Hat 433.4500/433.4500 CC1
EA1JBU 43.30.80N 005.16.20WIN73IM 32.765km 78°ENE13:45:19ZEA1JBU(3EA1JBU-2)
EA1JBE 43.30.90N 005.16.15WIN73IM 32.881km 78°ENE14:30:17ZSECOND QTH(3EA1JBE-2)
EA1JBU(2EA1JBE-13)
MAIN QTH http://qrz.com/db/ea1jbe(2EA1JBE-1)
EA1RCG 43.09.45N 005.49.78WIN73CD 35.565km 202°SSW14:06:06ZGRUPO RADIO GALENA (GRG) 433.4500/433.4500 CC1
ED1ZAD 43.07.90N 005.38.52WIN73ED 36.014km 177°S14:20:09ZED1ZAD-3 APRS Digi/Igate(3ED1ZAD-3)
EA1GS 43.23.36N 005.11.20WIN73JJ 39.563km 100°E14:05:19ZMMDVM MMDVM HS Hat 436.1000/436.1000 CC1
ED1ZBF 43.19.16N 005.06.74WIN73KH 47.378km 108°ESE14:06:25ZRD625 438.4750/430.8750 CC1
EC1KV 43.34.01N 006.16.01WIN63UN 49.825km 285°WNW14:11:36Z VOLT.=13.6 V - TEMP.=??.? C(3EC1KV-1)

aprs.pl 5.0.011w DL3EL © 2006-2021 [277564]